createdAt,value
2023-06-30T00:00:57.730Z,5.22
2023-06-30T00:03:24.799Z,8.18
2023-06-30T00:05:51.585Z,6.35
2023-06-30T00:08:18.170Z,9.38
2023-06-30T00:10:44.728Z,6.80
2023-06-30T00:13:11.322Z,5.28
2023-06-30T00:15:37.951Z,4.82
2023-06-30T00:18:04.977Z,7.47
2023-06-30T00:20:31.582Z,7.60
2023-06-30T00:22:58.139Z,4.78
2023-06-30T00:25:24.722Z,5.85
2023-06-30T00:27:51.270Z,4.45
2023-06-30T00:30:17.943Z,5.97
2023-06-30T00:32:44.494Z,13.00
2023-06-30T00:35:11.075Z,6.57
2023-06-30T00:37:37.800Z,8.25
2023-06-30T00:40:05.189Z,5.60
2023-06-30T00:42:31.770Z,9.23
2023-06-30T00:45:01.079Z,4.53
2023-06-30T00:47:27.839Z,6.73
2023-06-30T00:49:54.630Z,5.85
2023-06-30T00:52:21.257Z,7.47
2023-06-30T00:54:48.227Z,5.43
2023-06-30T00:57:15.485Z,4.00
2023-06-30T00:59:42.108Z,4.53
2023-06-30T01:02:22.099Z,5.55
2023-06-30T01:05:10.879Z,5.78
2023-06-30T01:07:44.175Z,6.80
2023-06-30T01:10:21.693Z,7.80
2023-06-30T01:12:49.161Z,6.05
2023-06-30T01:15:16.352Z,7.45
2023-06-30T01:17:48.457Z,8.98
2023-06-30T01:20:18.677Z,7.78
2023-06-30T01:22:51.643Z,6.10
2023-06-30T01:25:23.523Z,5.63
2023-06-30T01:27:50.493Z,6.85
2023-06-30T01:30:18.886Z,7.82
2023-06-30T01:32:46.910Z,10.95
2023-06-30T01:35:14.152Z,5.13
2023-06-30T01:37:40.840Z,9.45
2023-06-30T01:40:08.114Z,5.78
2023-06-30T01:42:36.818Z,6.78
2023-06-30T01:45:04.377Z,6.13
2023-06-30T01:47:31.335Z,4.88
2023-06-30T01:49:59.076Z,9.65
2023-06-30T01:52:25.894Z,5.07
2023-06-30T01:55:12.501Z,5.68
2023-06-30T01:57:59.063Z,5.78
2023-06-30T02:00:45.650Z,4.35
2023-06-30T02:03:32.213Z,6.40
2023-06-30T02:06:19.081Z,4.85
2023-06-30T02:09:03.904Z,7.88
2023-06-30T02:11:30.660Z,6.13
2023-06-30T02:13:57.250Z,7.93
2023-06-30T02:16:23.950Z,6.95
2023-06-30T02:18:52.667Z,7.95
2023-06-30T02:21:19.656Z,8.35
2023-06-30T02:23:48.140Z,7.28
2023-06-30T02:26:15.333Z,9.45
2023-06-30T02:28:42.097Z,11.45
2023-06-30T02:31:08.807Z,17.58
2023-06-30T02:33:35.966Z,11.52
2023-06-30T02:36:06.002Z,9.57
2023-06-30T02:38:32.772Z,8.10
2023-06-30T02:40:59.308Z,10.45
2023-06-30T02:43:26.003Z,6.55
2023-06-30T02:45:52.678Z,7.07
2023-06-30T02:48:19.414Z,6.68
2023-06-30T02:50:46.068Z,8.98
2023-06-30T02:53:14.771Z,6.05
2023-06-30T02:55:41.515Z,9.15
2023-06-30T02:58:12.308Z,8.13
2023-06-30T03:00:40.824Z,6.43
2023-06-30T03:03:07.621Z,5.78
2023-06-30T03:05:38.305Z,5.90
2023-06-30T03:08:06.559Z,4.65
2023-06-30T03:10:33.724Z,5.22
2023-06-30T03:13:00.399Z,4.88
2023-06-30T03:15:26.905Z,6.75
2023-06-30T03:17:56.397Z,4.88
2023-06-30T03:20:24.572Z,6.60
2023-06-30T03:22:53.071Z,4.82
2023-06-30T03:25:20.446Z,4.60
2023-06-30T03:27:47.034Z,7.43
2023-06-30T03:30:14.037Z,8.55
2023-06-30T03:32:44.565Z,6.82
2023-06-30T03:35:11.135Z,5.13
2023-06-30T03:37:37.717Z,6.28
2023-06-30T03:40:07.303Z,7.43
2023-06-30T03:42:33.975Z,7.28
2023-06-30T03:45:01.784Z,8.93
2023-06-30T03:47:30.706Z,7.63
2023-06-30T03:49:57.394Z,7.70
2023-06-30T03:52:23.875Z,7.85
2023-06-30T03:54:51.805Z,6.63
2023-06-30T03:57:18.486Z,6.95
2023-06-30T03:59:45.101Z,5.57
2023-06-30T04:02:11.794Z,7.30
2023-06-30T04:04:38.791Z,5.45
2023-06-30T04:07:06.088Z,6.97
2023-06-30T04:09:32.859Z,8.90
2023-06-30T04:11:59.397Z,8.25
2023-06-30T04:14:26.205Z,9.70
2023-06-30T04:16:52.844Z,10.93
2023-06-30T04:19:19.480Z,9.88
2023-06-30T04:21:45.934Z,8.48
2023-06-30T04:24:12.571Z,10.38
2023-06-30T04:26:39.272Z,9.63
2023-06-30T04:29:05.771Z,9.73
2023-06-30T04:31:32.321Z,9.38
2023-06-30T04:33:58.994Z,9.40
2023-06-30T04:36:25.567Z,12.60
2023-06-30T04:38:52.320Z,10.70
2023-06-30T04:41:19.186Z,14.07
2023-06-30T04:43:45.937Z,14.15
2023-06-30T04:46:12.522Z,11.05
2023-06-30T04:48:39.056Z,13.48
2023-06-30T04:51:05.819Z,13.13
2023-06-30T04:53:33.032Z,9.80
2023-06-30T04:55:59.744Z,14.02
2023-06-30T04:58:26.217Z,12.57
2023-06-30T05:00:52.865Z,10.38
2023-06-30T05:03:20.555Z,11.55
2023-06-30T05:05:47.607Z,14.80
2023-06-30T05:08:15.608Z,12.38
2023-06-30T05:10:42.419Z,13.50
2023-06-30T05:13:09.185Z,19.33
2023-06-30T05:15:35.799Z,16.67
2023-06-30T05:18:02.581Z,16.48
2023-06-30T05:20:29.093Z,13.38
2023-06-30T05:22:55.568Z,16.55
2023-06-30T05:25:22.159Z,11.00
2023-06-30T05:27:48.743Z,17.63
2023-06-30T05:30:15.316Z,18.25
2023-06-30T05:32:41.970Z,16.58
2023-06-30T05:35:08.650Z,17.85
2023-06-30T05:37:35.205Z,13.80
2023-06-30T05:40:01.854Z,11.63
2023-06-30T05:42:28.305Z,19.27
2023-06-30T05:44:54.767Z,16.92
2023-06-30T05:47:21.289Z,14.80
2023-06-30T05:49:47.866Z,13.40
2023-06-30T05:52:14.411Z,17.80
2023-06-30T05:54:42.420Z,14.40
2023-06-30T05:57:08.972Z,19.08
2023-06-30T05:59:35.425Z,15.18
2023-06-30T06:02:02.082Z,14.18
2023-06-30T06:04:28.916Z,12.68
2023-06-30T06:06:55.717Z,19.15
2023-06-30T06:09:22.237Z,16.33
2023-06-30T06:11:48.731Z,18.75
2023-06-30T06:14:16.617Z,13.93
2023-06-30T06:16:45.970Z,19.50
2023-06-30T06:19:13.185Z,14.40
2023-06-30T06:21:39.657Z,18.77
2023-06-30T06:24:06.569Z,15.63
2023-06-30T06:26:33.126Z,16.88
2023-06-30T06:28:59.744Z,18.55
2023-06-30T06:31:28.298Z,15.15
2023-06-30T06:33:56.163Z,18.00
2023-06-30T06:36:22.947Z,17.48
2023-06-30T06:38:49.484Z,14.27
2023-06-30T06:41:16.081Z,14.82
2023-06-30T06:43:43.517Z,14.40
2023-06-30T06:46:10.098Z,15.65
2023-06-30T06:48:36.690Z,15.35
2023-06-30T06:51:04.477Z,16.95
2023-06-30T06:53:36.397Z,15.73
2023-06-30T06:56:04.412Z,15.63
2023-06-30T06:58:33.583Z,16.17
2023-06-30T07:01:00.294Z,15.70
2023-06-30T07:03:27.130Z,15.80
2023-06-30T07:05:56.212Z,13.88
2023-06-30T07:08:22.878Z,13.18
2023-06-30T07:10:51.892Z,15.52
2023-06-30T07:13:20.353Z,12.10
2023-06-30T07:15:48.913Z,14.30
2023-06-30T07:18:18.960Z,13.95
2023-06-30T07:23:12.791Z,19.23
2023-06-30T07:25:39.275Z,14.10
2023-06-30T07:28:05.926Z,19.45
2023-06-30T07:30:32.489Z,23.88
2023-06-30T07:32:59.026Z,18.08
2023-06-30T07:35:25.724Z,23.33
2023-06-30T07:37:52.313Z,21.63
2023-06-30T07:40:21.899Z,22.33
2023-06-30T07:42:50.537Z,24.67
2023-06-30T07:45:18.107Z,26.67
2023-06-30T07:47:46.797Z,32.97
2023-06-30T07:50:15.541Z,32.05
2023-06-30T07:52:46.925Z,36.75
2023-06-30T07:55:14.763Z,39.28
2023-06-30T07:57:41.564Z,32.70
2023-06-30T08:00:08.688Z,35.45
2023-06-30T08:02:40.845Z,35.03
2023-06-30T08:05:07.884Z,38.83
2023-06-30T08:07:48.935Z,36.55
2023-06-30T08:10:16.826Z,34.78
2023-06-30T08:12:43.351Z,40.65
2023-06-30T08:15:10.472Z,36.17
2023-06-30T08:17:51.098Z,36.35
2023-06-30T08:20:23.946Z,34.67
2023-06-30T08:22:50.653Z,39.25
2023-06-30T08:25:17.407Z,39.83
2023-06-30T08:27:44.209Z,48.58
2023-06-30T08:30:11.108Z,52.22
2023-06-30T08:32:37.777Z,43.75
2023-06-30T08:35:04.672Z,44.40
2023-06-30T08:37:31.208Z,38.25
2023-06-30T08:39:58.007Z,30.67
2023-06-30T08:42:29.022Z,23.42
2023-06-30T08:44:58.286Z,21.60
2023-06-30T08:47:26.693Z,15.80
2023-06-30T08:49:57.222Z,15.27
2023-06-30T08:52:23.759Z,15.95
2023-06-30T08:54:50.436Z,12.68
2023-06-30T08:57:17.195Z,15.00
2023-06-30T08:59:44.590Z,10.93
2023-06-30T09:02:14.801Z,11.52
2023-06-30T09:04:42.524Z,10.18
2023-06-30T09:07:10.939Z,10.63
2023-06-30T09:09:43.342Z,9.77
2023-06-30T09:12:11.374Z,8.60
2023-06-30T09:14:40.223Z,8.05
2023-06-30T09:17:07.382Z,6.60
2023-06-30T09:19:35.059Z,7.22
2023-06-30T09:22:51.054Z,10.55
2023-06-30T09:24:50.426Z,5.85
2023-06-30T09:27:18.962Z,6.50
2023-06-30T09:29:55.006Z,5.45
2023-06-30T09:32:32.477Z,6.78
2023-06-30T09:35:07.061Z,7.75
2023-06-30T09:37:41.930Z,7.13
2023-06-30T09:40:13.277Z,6.22
2023-06-30T09:47:27.315Z,9.07
2023-06-30T09:50:14.039Z,5.38
2023-06-30T09:53:02.010Z,6.38
2023-06-30T09:55:52.944Z,6.47
2023-06-30T09:58:40.678Z,6.53
2023-06-30T10:01:27.539Z,3.92
2023-06-30T10:04:15.143Z,6.25
2023-06-30T10:06:41.925Z,5.93
2023-06-30T10:09:09.472Z,6.28
2023-06-30T10:11:36.875Z,8.02
2023-06-30T10:14:04.625Z,4.57
2023-06-30T10:16:31.941Z,4.28
2023-06-30T10:19:01.828Z,9.55
2023-06-30T10:21:28.803Z,5.68
2023-06-30T10:23:56.177Z,6.20
2023-06-30T10:26:24.785Z,3.60
2023-06-30T10:28:51.687Z,4.60
2023-06-30T10:31:52.483Z,4.05
2023-06-30T10:34:19.598Z,4.50
2023-06-30T10:36:47.041Z,3.63
2023-06-30T10:39:14.805Z,5.18
2023-06-30T10:41:50.621Z,4.28
2023-06-30T10:44:21.687Z,7.35
2023-06-30T10:46:57.670Z,5.38
2023-06-30T10:49:34.017Z,6.75
2023-06-30T10:52:06.813Z,3.92
2023-06-30T10:54:47.033Z,6.25
2023-06-30T10:57:24.256Z,5.85
2023-06-30T11:00:11.571Z,6.10
2023-06-30T11:02:39.199Z,3.83
2023-06-30T11:05:26.328Z,3.05
2023-06-30T11:08:08.964Z,6.25
2023-06-30T11:10:37.604Z,3.85
2023-06-30T11:13:10.706Z,4.25
2023-06-30T11:15:43.921Z,4.90
2023-06-30T11:18:14.996Z,2.85
2023-06-30T11:21:01.680Z,6.47
2023-06-30T11:23:32.235Z,2.55
2023-06-30T11:25:59.164Z,3.03
2023-06-30T11:28:29.773Z,3.60
2023-06-30T11:31:00.385Z,3.10
2023-06-30T11:33:27.007Z,2.72
2023-06-30T11:35:54.580Z,4.35
2023-06-30T11:38:21.246Z,2.60
2023-06-30T11:40:49.326Z,4.93
2023-06-30T11:43:15.934Z,6.13
2023-06-30T11:45:42.487Z,2.88
2023-06-30T11:48:09.168Z,7.25
2023-06-30T11:50:36.068Z,3.78
2023-06-30T11:53:02.671Z,7.15
2023-06-30T11:55:29.331Z,5.53
2023-06-30T11:57:56.105Z,5.20
2023-06-30T12:00:24.564Z,5.53
2023-06-30T12:02:58.750Z,4.25
2023-06-30T12:05:27.013Z,7.68
2023-06-30T12:07:58.598Z,4.15
2023-06-30T12:10:37.854Z,7.35
2023-06-30T12:13:07.425Z,4.13
2023-06-30T12:15:34.136Z,5.32
2023-06-30T12:18:05.377Z,5.85
2023-06-30T12:20:37.231Z,5.60
2023-06-30T12:23:05.535Z,12.85
2023-06-30T12:25:37.179Z,5.72
2023-06-30T12:28:05.206Z,6.43
2023-06-30T12:30:32.196Z,5.70
2023-06-30T12:33:00.866Z,6.80
2023-06-30T12:35:30.413Z,5.70
2023-06-30T12:37:57.188Z,13.70
2023-06-30T12:40:25.630Z,7.68
2023-06-30T12:42:58.140Z,4.18
2023-06-30T12:45:24.725Z,6.25
2023-06-30T12:47:51.314Z,7.05
2023-06-30T12:50:17.963Z,8.93
2023-06-30T12:52:44.589Z,5.97
2023-06-30T12:55:11.252Z,7.90
2023-06-30T12:57:38.071Z,8.07
2023-06-30T13:00:11.742Z,5.28
2023-06-30T13:02:39.051Z,8.35
2023-06-30T13:05:07.224Z,10.77
2023-06-30T13:07:35.294Z,5.97
2023-06-30T13:10:05.998Z,5.07
2023-06-30T13:12:32.565Z,8.18
2023-06-30T13:14:59.283Z,9.25
2023-06-30T13:17:26.069Z,6.38
2023-06-30T13:19:53.043Z,5.00
2023-06-30T13:22:20.615Z,7.30
2023-06-30T13:24:48.672Z,6.97
2023-06-30T13:27:15.458Z,9.32
2023-06-30T13:29:52.602Z,8.90
2023-06-30T13:32:19.822Z,6.50
2023-06-30T13:34:48.014Z,8.68
2023-06-30T13:37:14.900Z,3.78
2023-06-30T13:39:41.530Z,6.60
2023-06-30T13:42:09.845Z,5.65
2023-06-30T13:44:37.108Z,6.25
2023-06-30T13:47:04.184Z,5.07
2023-06-30T13:49:30.867Z,7.63
2023-06-30T13:51:58.131Z,9.63
2023-06-30T13:54:25.165Z,6.72
2023-06-30T13:56:53.227Z,7.82
2023-06-30T13:59:19.861Z,5.80
2023-06-30T14:01:46.779Z,7.03
2023-06-30T14:04:14.011Z,7.25
2023-06-30T14:06:41.248Z,6.93
2023-06-30T14:09:11.022Z,6.25
2023-06-30T14:14:07.798Z,8.63
2023-06-30T14:16:36.033Z,7.38
2023-06-30T14:19:04.302Z,8.30
2023-06-30T14:21:32.053Z,9.98
2023-06-30T14:23:59.382Z,5.63
2023-06-30T14:26:26.393Z,13.30
2023-06-30T14:28:53.753Z,7.57
2023-06-30T14:31:20.640Z,5.22
2023-06-30T14:33:47.268Z,5.25
2023-06-30T14:36:14.099Z,6.00
2023-06-30T14:38:40.654Z,6.32
2023-06-30T14:41:07.199Z,5.10
2023-06-30T14:43:33.686Z,4.18
2023-06-30T14:46:00.348Z,9.15
2023-06-30T14:48:26.909Z,6.28
2023-06-30T14:50:53.383Z,5.07
2023-06-30T14:53:20.088Z,4.78
2023-06-30T14:55:47.117Z,7.22
2023-06-30T14:58:13.932Z,4.70
2023-06-30T15:00:40.980Z,4.40
2023-06-30T15:03:07.533Z,7.10
2023-06-30T15:05:34.221Z,7.53
2023-06-30T15:08:01.292Z,8.15
2023-06-30T15:10:27.839Z,6.78
2023-06-30T15:12:54.410Z,6.72
2023-06-30T15:15:21.214Z,4.38
2023-06-30T15:17:47.852Z,6.20
2023-06-30T15:20:14.424Z,6.93
2023-06-30T15:22:42.348Z,5.53
2023-06-30T15:25:25.714Z,4.63
2023-06-30T15:27:52.714Z,7.82
2023-06-30T15:30:20.384Z,6.95
2023-06-30T15:32:47.327Z,5.85
2023-06-30T15:35:13.854Z,5.85
2023-06-30T15:37:41.651Z,5.25
2023-06-30T15:40:08.522Z,4.65
2023-06-30T15:42:35.230Z,5.15
2023-06-30T15:45:03.039Z,4.90
2023-06-30T15:47:29.639Z,6.35
2023-06-30T15:49:56.153Z,5.72
2023-06-30T15:52:22.666Z,5.45
2023-06-30T15:55:07.581Z,6.78
2023-06-30T15:57:34.457Z,4.43
2023-06-30T16:00:02.347Z,5.25
2023-06-30T16:02:39.150Z,6.60
2023-06-30T16:05:09.954Z,4.93
2023-06-30T16:07:36.812Z,4.95
2023-06-30T16:10:05.548Z,4.65
2023-06-30T16:12:32.294Z,3.30
2023-06-30T16:14:58.961Z,5.57
2023-06-30T16:17:25.649Z,5.28
2023-06-30T16:19:52.195Z,7.80
2023-06-30T16:22:18.744Z,9.77
2023-06-30T16:24:46.020Z,4.53
2023-06-30T16:27:12.883Z,7.75
2023-06-30T16:29:39.552Z,6.28
2023-06-30T16:32:07.351Z,9.73
2023-06-30T16:34:34.145Z,4.63
2023-06-30T16:37:00.844Z,4.38
2023-06-30T16:39:27.523Z,5.03
2023-06-30T16:41:54.001Z,5.10
2023-06-30T16:44:20.544Z,4.47
2023-06-30T16:46:47.180Z,3.72
2023-06-30T16:49:14.056Z,9.02
2023-06-30T16:51:42.571Z,8.35
2023-06-30T16:54:09.476Z,7.18
2023-06-30T16:56:36.069Z,8.40
2023-06-30T16:59:02.959Z,5.20
2023-06-30T17:01:29.646Z,6.32
2023-06-30T17:03:56.320Z,16.08
2023-06-30T17:06:23.656Z,39.42
2023-06-30T17:08:50.141Z,80.88
2023-06-30T17:11:16.710Z,93.55
2023-06-30T17:13:43.417Z,8.40
2023-06-30T17:16:09.957Z,11.52
2023-06-30T17:18:36.518Z,8.80
2023-06-30T17:21:03.163Z,4.35
2023-06-30T17:23:29.947Z,6.40
2023-06-30T17:25:56.646Z,4.35
2023-06-30T17:28:23.093Z,4.38
2023-06-30T17:30:49.700Z,5.93
2023-06-30T17:33:16.275Z,6.93
2023-06-30T17:35:43.172Z,5.20
2023-06-30T17:38:09.974Z,7.43
2023-06-30T17:40:36.519Z,7.82
2023-06-30T17:43:03.250Z,7.80
2023-06-30T17:45:29.712Z,4.68
2023-06-30T17:47:56.193Z,4.43
2023-06-30T17:50:26.070Z,4.97
2023-06-30T17:52:52.587Z,10.45
2023-06-30T17:55:19.498Z,4.57
2023-06-30T17:57:46.065Z,3.88
2023-06-30T18:00:13.189Z,6.10
2023-06-30T18:02:39.699Z,5.45
2023-06-30T18:05:06.710Z,4.63
2023-06-30T18:07:33.217Z,4.65
2023-06-30T18:09:59.935Z,4.80
2023-06-30T18:12:26.386Z,11.95
2023-06-30T18:14:52.916Z,4.13
2023-06-30T18:17:19.550Z,4.25
2023-06-30T18:19:46.052Z,3.17
2023-06-30T18:22:14.087Z,9.68
2023-06-30T18:24:40.877Z,5.70
2023-06-30T18:27:07.427Z,4.60
2023-06-30T18:29:34.058Z,5.40
2023-06-30T18:32:01.069Z,8.13
2023-06-30T18:34:27.883Z,5.82
2023-06-30T18:36:54.411Z,9.75
2023-06-30T18:39:21.145Z,8.02
2023-06-30T18:41:47.767Z,3.47
2023-06-30T18:44:14.292Z,4.55
2023-06-30T18:46:41.066Z,5.55
2023-06-30T18:49:10.816Z,5.50
2023-06-30T18:51:39.810Z,4.05
2023-06-30T18:54:06.364Z,9.00
2023-06-30T18:56:32.898Z,5.72
2023-06-30T18:59:01.254Z,7.72
2023-06-30T19:01:28.746Z,2.53
2023-06-30T19:03:55.723Z,7.57
2023-06-30T19:06:24.733Z,5.10
2023-06-30T19:08:52.941Z,4.97
2023-06-30T19:11:20.040Z,4.53
2023-06-30T19:13:46.622Z,5.03
2023-06-30T19:16:13.265Z,6.90
2023-06-30T19:18:40.188Z,5.80
2023-06-30T19:21:10.334Z,6.55
2023-06-30T19:23:38.535Z,7.68
2023-06-30T19:26:05.307Z,6.45
2023-06-30T19:28:32.008Z,5.00
2023-06-30T19:30:58.889Z,5.53
2023-06-30T19:33:29.226Z,6.07
2023-06-30T19:35:56.112Z,7.45
2023-06-30T19:38:22.713Z,7.80
2023-06-30T19:40:49.359Z,4.78
2023-06-30T19:43:16.162Z,4.50
2023-06-30T19:45:43.382Z,4.72
2023-06-30T19:48:10.110Z,3.22
2023-06-30T19:50:37.388Z,6.28
2023-06-30T19:53:04.336Z,12.02
2023-06-30T19:55:33.519Z,5.72
2023-06-30T19:58:00.132Z,9.10
2023-06-30T20:00:26.789Z,6.82
2023-06-30T20:02:55.225Z,8.38
2023-06-30T20:05:21.747Z,6.20
2023-06-30T20:07:48.403Z,6.32
2023-06-30T20:10:14.989Z,3.63
2023-06-30T20:12:41.567Z,5.28
2023-06-30T20:15:08.784Z,5.28
2023-06-30T20:17:35.825Z,4.10
2023-06-30T20:20:02.526Z,6.57
2023-06-30T20:22:29.995Z,3.72
2023-06-30T20:24:58.133Z,6.15
2023-06-30T20:27:24.709Z,4.43
2023-06-30T20:29:51.871Z,5.90
2023-06-30T20:32:18.857Z,5.97
2023-06-30T20:34:45.496Z,3.50
2023-06-30T20:37:12.150Z,3.85
2023-06-30T20:39:40.053Z,4.70
2023-06-30T20:42:07.377Z,4.38
2023-06-30T20:44:34.664Z,8.32
2023-06-30T20:47:01.297Z,3.60
2023-06-30T20:49:27.909Z,4.20
2023-06-30T20:51:55.431Z,5.93
2023-06-30T20:54:24.298Z,4.93
2023-06-30T20:56:51.973Z,8.82
2023-06-30T20:59:18.790Z,7.00
2023-06-30T21:01:45.356Z,5.45
2023-06-30T21:04:12.207Z,5.70
2023-06-30T21:06:39.149Z,4.03
2023-06-30T21:09:06.300Z,4.60
2023-06-30T21:11:33.514Z,3.35
2023-06-30T21:14:00.663Z,4.90
2023-06-30T21:16:27.452Z,7.65
2023-06-30T21:18:54.131Z,5.65
2023-06-30T21:21:20.688Z,6.38
2023-06-30T21:23:47.285Z,4.82
2023-06-30T21:26:13.974Z,5.88
2023-06-30T21:28:40.517Z,6.95
2023-06-30T21:31:07.072Z,4.57
2023-06-30T21:33:33.582Z,6.50
2023-06-30T21:36:01.812Z,6.88
2023-06-30T21:38:28.445Z,5.43
2023-06-30T21:40:55.010Z,4.55
2023-06-30T21:43:21.581Z,5.28
2023-06-30T21:45:48.651Z,4.60
2023-06-30T21:48:15.231Z,6.18
2023-06-30T21:50:41.751Z,7.07
2023-06-30T21:53:08.341Z,7.43
2023-06-30T21:55:35.236Z,5.57
2023-06-30T21:58:06.469Z,9.82
2023-06-30T22:00:35.450Z,10.88
2023-06-30T22:03:02.080Z,5.68
2023-06-30T22:05:30.143Z,5.30
2023-06-30T22:07:56.929Z,5.22
2023-06-30T22:10:23.437Z,5.00
2023-06-30T22:12:50.009Z,5.88
2023-06-30T22:15:16.803Z,5.03
2023-06-30T22:17:43.478Z,5.43
2023-06-30T22:20:10.771Z,7.00
2023-06-30T22:22:37.345Z,4.80
2023-06-30T22:25:04.284Z,5.93
2023-06-30T22:27:31.062Z,3.65
2023-06-30T22:29:57.637Z,5.28
2023-06-30T22:32:25.476Z,5.07
2023-06-30T22:34:51.982Z,4.75
2023-06-30T22:37:18.586Z,6.70
2023-06-30T22:39:45.163Z,6.55
2023-06-30T22:42:11.602Z,9.52
2023-06-30T22:44:38.191Z,5.30
2023-06-30T22:47:05.088Z,5.78
2023-06-30T22:49:31.763Z,3.55
2023-06-30T22:51:58.370Z,4.68
2023-06-30T22:54:26.147Z,4.03
2023-06-30T22:56:52.656Z,3.53
2023-06-30T22:59:19.599Z,6.78
2023-06-30T23:01:47.095Z,4.40
2023-06-30T23:04:13.601Z,3.40
2023-06-30T23:06:40.162Z,5.88
2023-06-30T23:09:06.916Z,4.88
2023-06-30T23:11:33.505Z,5.40
2023-06-30T23:14:00.168Z,3.92
2023-06-30T23:16:26.637Z,3.03
2023-06-30T23:18:53.227Z,4.93
2023-06-30T23:21:20.603Z,3.88
2023-06-30T23:23:47.176Z,4.22
2023-06-30T23:26:15.320Z,7.35
2023-06-30T23:28:50.104Z,4.15
2023-06-30T23:31:18.191Z,4.65
2023-06-30T23:33:44.821Z,4.57
2023-06-30T23:36:11.476Z,6.85
2023-06-30T23:38:39.518Z,4.05
2023-06-30T23:41:06.234Z,5.28
2023-06-30T23:43:32.878Z,5.90
2023-06-30T23:45:59.323Z,4.03
2023-06-30T23:48:25.905Z,7.15
2023-06-30T23:50:52.459Z,4.10
2023-06-30T23:53:19.106Z,3.58
2023-06-30T23:55:45.637Z,3.70
2023-06-30T23:58:12.264Z,5.20
